Burrel, California
Current Conditions -  °F | °C
As of 2:56 PM on Tuesday 21 Oct 2014 (Local Time) from KNLC Reporting Station
Broken Clouds Broken Clouds  
Wind Chill: 73°   Ceiling: 24000
Heat Index: 73°   Visibility: 10mi
Dew Point: 46°   Wind: 14mph
Humidity: 38%   Direction: 330°NNW
Pressure: 29.99"   Gusts: 20mph
Location:  36.49°N, 119.99°W
Report Text: KNLC 212156Z 33012G17KT 10SM BKN240 23/08 A2999 RMK AO2 SLP155 RH/37 T02280078 $
Loading
Personal Weather Stations






























Interactive Weather Map
Tropical Storm Tracking
New forecast layout! Learn more

10-Day Weather Forecast

Advertisements
Track Severe Weather on mobile